sensor_id;sensor_type;location;lat;lon;timestamp;P1;durP1;ratioP1;P2;durP2;ratioP2
34960;SDS011;30789;52.030;7.110;2023-02-24T00:00:54;13.43;;;3.53;;
34960;SDS011;30789;52.030;7.110;2023-02-24T00:03:20;13.10;;;3.05;;
34960;SDS011;30789;52.030;7.110;2023-02-24T00:05:48;10.63;;;2.50;;
34960;SDS011;30789;52.030;7.110;2023-02-24T00:08:14;19.15;;;3.42;;
34960;SDS011;30789;52.030;7.110;2023-02-24T00:10:40;12.88;;;2.55;;
34960;SDS011;30789;52.030;7.110;2023-02-24T00:13:07;12.48;;;2.55;;
34960;SDS011;30789;52.030;7.110;2023-02-24T00:15:35;7.35;;;2.55;;
34960;SDS011;30789;52.030;7.110;2023-02-24T00:18:02;7.45;;;2.50;;
34960;SDS011;30789;52.030;7.110;2023-02-24T00:20:31;11.82;;;2.63;;
34960;SDS011;30789;52.030;7.110;2023-02-24T00:22:58;13.70;;;2.72;;
34960;SDS011;30789;52.030;7.110;2023-02-24T00:25:25;8.23;;;2.42;;
34960;SDS011;30789;52.030;7.110;2023-02-24T00:27:51;7.60;;;2.63;;
34960;SDS011;30789;52.030;7.110;2023-02-24T00:30:19;21.88;;;3.45;;
34960;SDS011;30789;52.030;7.110;2023-02-24T00:32:48;20.13;;;3.00;;
34960;SDS011;30789;52.030;7.110;2023-02-24T00:35:14;13.07;;;2.92;;
34960;SDS011;30789;52.030;7.110;2023-02-24T00:37:41;10.68;;;2.05;;
34960;SDS011;30789;52.030;7.110;2023-02-24T00:40:09;8.25;;;2.40;;
34960;SDS011;30789;52.030;7.110;2023-02-24T00:42:36;10.48;;;2.80;;
34960;SDS011;30789;52.030;7.110;2023-02-24T00:45:04;6.90;;;2.22;;
34960;SDS011;30789;52.030;7.110;2023-02-24T00:47:35;9.80;;;2.80;;
34960;SDS011;30789;52.030;7.110;2023-02-24T00:50:02;11.82;;;3.00;;
34960;SDS011;30789;52.030;7.110;2023-02-24T00:52:29;12.90;;;2.83;;
34960;SDS011;30789;52.030;7.110;2023-02-24T00:54:55;11.88;;;2.40;;
34960;SDS011;30789;52.030;7.110;2023-02-24T00:57:24;18.25;;;3.45;;
34960;SDS011;30789;52.030;7.110;2023-02-24T00:59:51;11.63;;;2.65;;
34960;SDS011;30789;52.030;7.110;2023-02-24T01:02:17;13.30;;;3.00;;
34960;SDS011;30789;52.030;7.110;2023-02-24T01:04:44;7.78;;;2.30;;
34960;SDS011;30789;52.030;7.110;2023-02-24T01:07:10;11.50;;;2.58;;
34960;SDS011;30789;52.030;7.110;2023-02-24T01:09:38;9.20;;;2.72;;
34960;SDS011;30789;52.030;7.110;2023-02-24T01:12:06;16.75;;;3.20;;
34960;SDS011;30789;52.030;7.110;2023-02-24T01:14:51;12.90;;;2.65;;
34960;SDS011;30789;52.030;7.110;2023-02-24T01:17:19;12.70;;;3.08;;
34960;SDS011;30789;52.030;7.110;2023-02-24T01:19:46;9.13;;;2.17;;
34960;SDS011;30789;52.030;7.110;2023-02-24T01:22:14;8.63;;;2.42;;
34960;SDS011;30789;52.030;7.110;2023-02-24T01:24:41;13.43;;;2.08;;
34960;SDS011;30789;52.030;7.110;2023-02-24T01:27:07;8.38;;;2.53;;
34960;SDS011;30789;52.030;7.110;2023-02-24T01:29:35;7.70;;;2.00;;
34960;SDS011;30789;52.030;7.110;2023-02-24T01:32:04;7.32;;;2.10;;
34960;SDS011;30789;52.030;7.110;2023-02-24T01:34:31;7.07;;;2.38;;
34960;SDS011;30789;52.030;7.110;2023-02-24T01:36:59;10.75;;;2.45;;
34960;SDS011;30789;52.030;7.110;2023-02-24T01:39:25;12.27;;;2.92;;
34960;SDS011;30789;52.030;7.110;2023-02-24T01:41:52;12.82;;;2.35;;
34960;SDS011;30789;52.030;7.110;2023-02-24T01:47:08;11.30;;;2.35;;
34960;SDS011;30789;52.030;7.110;2023-02-24T01:49:36;12.05;;;2.20;;
34960;SDS011;30789;52.030;7.110;2023-02-24T01:52:05;11.13;;;2.05;;
34960;SDS011;30789;52.030;7.110;2023-02-24T01:54:32;10.30;;;2.65;;
34960;SDS011;30789;52.030;7.110;2023-02-24T01:56:59;7.47;;;2.33;;
34960;SDS011;30789;52.030;7.110;2023-02-24T01:59:29;6.85;;;1.98;;
34960;SDS011;30789;52.030;7.110;2023-02-24T02:01:56;5.72;;;2.20;;
34960;SDS011;30789;52.030;7.110;2023-02-24T02:04:30;7.72;;;2.20;;
34960;SDS011;30789;52.030;7.110;2023-02-24T02:06:58;8.60;;;2.22;;
34960;SDS011;30789;52.030;7.110;2023-02-24T02:09:25;12.90;;;1.80;;
34960;SDS011;30789;52.030;7.110;2023-02-24T02:11:52;11.75;;;2.22;;
34960;SDS011;30789;52.030;7.110;2023-02-24T02:14:19;9.23;;;2.17;;
34960;SDS011;30789;52.030;7.110;2023-02-24T02:16:50;5.90;;;1.70;;
34960;SDS011;30789;52.030;7.110;2023-02-24T02:19:34;7.38;;;2.15;;
34960;SDS011;30789;52.030;7.110;2023-02-24T02:22:15;11.75;;;2.28;;
34960;SDS011;30789;52.030;7.110;2023-02-24T02:24:48;11.43;;;2.97;;
34960;SDS011;30789;52.030;7.110;2023-02-24T02:27:27;6.35;;;2.50;;
34960;SDS011;30789;52.030;7.110;2023-02-24T02:30:03;8.40;;;1.50;;
34960;SDS011;30789;52.030;7.110;2023-02-24T02:32:53;8.68;;;2.05;;
34960;SDS011;30789;52.030;7.110;2023-02-24T02:35:28;7.07;;;2.22;;
34960;SDS011;30789;52.030;7.110;2023-02-24T02:37:57;7.72;;;2.20;;
34960;SDS011;30789;52.030;7.110;2023-02-24T02:40:32;6.57;;;1.75;;
34960;SDS011;30789;52.030;7.110;2023-02-24T02:43:02;7.53;;;1.77;;
34960;SDS011;30789;52.030;7.110;2023-02-24T02:45:33;9.20;;;1.95;;
34960;SDS011;30789;52.030;7.110;2023-02-24T02:48:04;6.97;;;2.65;;
34960;SDS011;30789;52.030;7.110;2023-02-24T02:50:33;12.45;;;2.40;;
34960;SDS011;30789;52.030;7.110;2023-02-24T02:53:02;12.07;;;2.85;;
34960;SDS011;30789;52.030;7.110;2023-02-24T02:55:32;16.05;;;2.65;;
34960;SDS011;30789;52.030;7.110;2023-02-24T02:58:00;6.80;;;2.03;;
34960;SDS011;30789;52.030;7.110;2023-02-24T03:00:28;11.48;;;2.53;;
34960;SDS011;30789;52.030;7.110;2023-02-24T03:02:59;10.00;;;2.88;;
34960;SDS011;30789;52.030;7.110;2023-02-24T03:05:29;16.73;;;2.78;;
34960;SDS011;30789;52.030;7.110;2023-02-24T03:07:58;11.88;;;2.13;;
34960;SDS011;30789;52.030;7.110;2023-02-24T03:10:28;10.93;;;2.35;;
34960;SDS011;30789;52.030;7.110;2023-02-24T03:12:58;12.98;;;3.10;;
34960;SDS011;30789;52.030;7.110;2023-02-24T03:15:27;8.60;;;2.50;;
34960;SDS011;30789;52.030;7.110;2023-02-24T03:17:55;9.13;;;2.78;;
34960;SDS011;30789;52.030;7.110;2023-02-24T03:20:25;10.23;;;2.75;;
34960;SDS011;30789;52.030;7.110;2023-02-24T03:22:54;9.13;;;2.30;;
34960;SDS011;30789;52.030;7.110;2023-02-24T03:25:27;14.07;;;2.70;;
34960;SDS011;30789;52.030;7.110;2023-02-24T03:30:22;8.95;;;2.33;;
34960;SDS011;30789;52.030;7.110;2023-02-24T03:32:52;10.65;;;2.67;;
34960;SDS011;30789;52.030;7.110;2023-02-24T03:35:21;6.68;;;2.80;;
34960;SDS011;30789;52.030;7.110;2023-02-24T03:37:48;10.50;;;2.22;;
34960;SDS011;30789;52.030;7.110;2023-02-24T03:40:17;6.75;;;2.38;;
34960;SDS011;30789;52.030;7.110;2023-02-24T03:42:47;7.43;;;2.47;;
34960;SDS011;30789;52.030;7.110;2023-02-24T03:45:13;4.95;;;2.05;;
34960;SDS011;30789;52.030;7.110;2023-02-24T03:47:40;7.82;;;2.63;;
34960;SDS011;30789;52.030;7.110;2023-02-24T03:50:11;9.50;;;2.95;;
34960;SDS011;30789;52.030;7.110;2023-02-24T03:52:38;10.40;;;2.47;;
34960;SDS011;30789;52.030;7.110;2023-02-24T03:55:10;8.75;;;2.38;;
34960;SDS011;30789;52.030;7.110;2023-02-24T03:57:45;6.05;;;2.15;;
34960;SDS011;30789;52.030;7.110;2023-02-24T04:00:22;12.55;;;2.80;;
34960;SDS011;30789;52.030;7.110;2023-02-24T04:02:53;4.55;;;2.42;;
34960;SDS011;30789;52.030;7.110;2023-02-24T04:05:21;7.45;;;2.05;;
34960;SDS011;30789;52.030;7.110;2023-02-24T04:07:53;7.93;;;2.08;;
34960;SDS011;30789;52.030;7.110;2023-02-24T04:10:20;8.02;;;2.28;;
34960;SDS011;30789;52.030;7.110;2023-02-24T04:12:49;6.38;;;2.33;;
34960;SDS011;30789;52.030;7.110;2023-02-24T04:15:18;11.88;;;2.35;;
34960;SDS011;30789;52.030;7.110;2023-02-24T04:17:47;4.93;;;1.67;;
34960;SDS011;30789;52.030;7.110;2023-02-24T04:20:15;10.70;;;2.47;;
34960;SDS011;30789;52.030;7.110;2023-02-24T04:22:45;11.32;;;3.15;;
34960;SDS011;30789;52.030;7.110;2023-02-24T04:25:14;7.88;;;1.52;;
34960;SDS011;30789;52.030;7.110;2023-02-24T04:27:41;9.82;;;2.38;;
34960;SDS011;30789;52.030;7.110;2023-02-24T04:30:08;5.03;;;1.67;;
34960;SDS011;30789;52.030;7.110;2023-02-24T04:32:36;10.02;;;2.13;;
34960;SDS011;30789;52.030;7.110;2023-02-24T04:35:05;5.05;;;2.08;;
34960;SDS011;30789;52.030;7.110;2023-02-24T04:37:34;2.43;;;1.33;;
34960;SDS011;30789;52.030;7.110;2023-02-24T04:40:02;4.50;;;1.80;;
34960;SDS011;30789;52.030;7.110;2023-02-24T04:42:34;8.10;;;2.05;;
34960;SDS011;30789;52.030;7.110;2023-02-24T04:45:05;8.57;;;1.77;;
34960;SDS011;30789;52.030;7.110;2023-02-24T04:47:34;5.20;;;2.13;;
34960;SDS011;30789;52.030;7.110;2023-02-24T04:50:01;7.70;;;2.35;;
34960;SDS011;30789;52.030;7.110;2023-02-24T04:52:31;4.40;;;2.10;;
34960;SDS011;30789;52.030;7.110;2023-02-24T04:54:58;7.88;;;1.95;;
34960;SDS011;30789;52.030;7.110;2023-02-24T04:57:24;7.00;;;2.40;;
34960;SDS011;30789;52.030;7.110;2023-02-24T04:59:50;10.20;;;2.05;;
34960;SDS011;30789;52.030;7.110;2023-02-24T05:02:18;9.10;;;2.20;;
34960;SDS011;30789;52.030;7.110;2023-02-24T05:04:45;9.68;;;2.88;;
34960;SDS011;30789;52.030;7.110;2023-02-24T05:07:13;6.20;;;2.05;;
34960;SDS011;30789;52.030;7.110;2023-02-24T05:09:41;5.45;;;2.45;;
34960;SDS011;30789;52.030;7.110;2023-02-24T05:12:07;6.57;;;2.25;;
34960;SDS011;30789;52.030;7.110;2023-02-24T05:14:34;4.20;;;2.08;;
34960;SDS011;30789;52.030;7.110;2023-02-24T05:17:00;2.50;;;1.38;;
34960;SDS011;30789;52.030;7.110;2023-02-24T05:19:27;7.70;;;2.03;;
34960;SDS011;30789;52.030;7.110;2023-02-24T05:22:11;5.88;;;1.95;;
34960;SDS011;30789;52.030;7.110;2023-02-24T05:24:42;6.22;;;1.70;;
34960;SDS011;30789;52.030;7.110;2023-02-24T05:27:11;5.00;;;1.50;;
34960;SDS011;30789;52.030;7.110;2023-02-24T05:29:40;4.15;;;2.22;;
34960;SDS011;30789;52.030;7.110;2023-02-24T05:32:08;7.80;;;1.70;;
34960;SDS011;30789;52.030;7.110;2023-02-24T05:34:34;5.60;;;1.90;;
34960;SDS011;30789;52.030;7.110;2023-02-24T05:37:02;6.50;;;2.80;;
34960;SDS011;30789;52.030;7.110;2023-02-24T05:39:34;8.90;;;1.85;;
34960;SDS011;30789;52.030;7.110;2023-02-24T05:42:03;8.77;;;2.58;;
34960;SDS011;30789;52.030;7.110;2023-02-24T05:44:31;4.30;;;1.60;;
34960;SDS011;30789;52.030;7.110;2023-02-24T05:46:59;4.32;;;1.38;;
34960;SDS011;30789;52.030;7.110;2023-02-24T05:49:26;7.38;;;2.17;;
34960;SDS011;30789;52.030;7.110;2023-02-24T05:51:54;2.95;;;1.92;;
34960;SDS011;30789;52.030;7.110;2023-02-24T05:54:21;6.82;;;2.85;;
34960;SDS011;30789;52.030;7.110;2023-02-24T05:56:48;5.05;;;1.60;;
34960;SDS011;30789;52.030;7.110;2023-02-24T05:59:15;9.13;;;2.38;;
34960;SDS011;30789;52.030;7.110;2023-02-24T06:01:45;4.90;;;2.00;;
34960;SDS011;30789;52.030;7.110;2023-02-24T06:04:13;8.02;;;2.55;;
34960;SDS011;30789;52.030;7.110;2023-02-24T06:06:45;5.57;;;1.50;;
34960;SDS011;30789;52.030;7.110;2023-02-24T06:09:16;7.05;;;1.88;;
34960;SDS011;30789;52.030;7.110;2023-02-24T06:11:43;12.05;;;2.20;;
34960;SDS011;30789;52.030;7.110;2023-02-24T06:14:10;9.70;;;2.17;;
34960;SDS011;30789;52.030;7.110;2023-02-24T06:16:39;10.07;;;2.33;;
34960;SDS011;30789;52.030;7.110;2023-02-24T06:19:07;5.43;;;2.08;;
34960;SDS011;30789;52.030;7.110;2023-02-24T06:21:34;3.55;;;1.75;;
34960;SDS011;30789;52.030;7.110;2023-02-24T06:24:01;7.90;;;2.75;;
34960;SDS011;30789;52.030;7.110;2023-02-24T06:26:29;6.00;;;2.20;;
34960;SDS011;30789;52.030;7.110;2023-02-24T06:28:57;8.00;;;2.60;;
34960;SDS011;30789;52.030;7.110;2023-02-24T06:31:24;7.15;;;2.45;;
34960;SDS011;30789;52.030;7.110;2023-02-24T06:33:52;6.03;;;2.08;;
34960;SDS011;30789;52.030;7.110;2023-02-24T06:36:20;10.10;;;2.40;;
34960;SDS011;30789;52.030;7.110;2023-02-24T06:38:46;3.53;;;1.75;;
34960;SDS011;30789;52.030;7.110;2023-02-24T06:41:14;9.38;;;2.20;;
34960;SDS011;30789;52.030;7.110;2023-02-24T06:43:40;11.27;;;2.33;;
34960;SDS011;30789;52.030;7.110;2023-02-24T06:46:08;9.48;;;2.92;;
34960;SDS011;30789;52.030;7.110;2023-02-24T06:48:35;10.13;;;2.10;;
34960;SDS011;30789;52.030;7.110;2023-02-24T06:51:03;5.95;;;2.45;;
34960;SDS011;30789;52.030;7.110;2023-02-24T06:53:30;6.60;;;2.50;;
34960;SDS011;30789;52.030;7.110;2023-02-24T06:55:58;10.35;;;2.28;;
34960;SDS011;30789;52.030;7.110;2023-02-24T06:58:27;11.45;;;2.35;;
34960;SDS011;30789;52.030;7.110;2023-02-24T07:00:53;4.68;;;2.30;;
34960;SDS011;30789;52.030;7.110;2023-02-24T07:03:22;7.75;;;2.78;;
34960;SDS011;30789;52.030;7.110;2023-02-24T07:05:50;12.32;;;3.13;;
34960;SDS011;30789;52.030;7.110;2023-02-24T07:08:20;6.43;;;2.25;;
34960;SDS011;30789;52.030;7.110;2023-02-24T07:10:50;3.58;;;1.85;;
34960;SDS011;30789;52.030;7.110;2023-02-24T07:13:17;13.75;;;2.88;;
34960;SDS011;30789;52.030;7.110;2023-02-24T07:15:43;5.75;;;2.03;;
34960;SDS011;30789;52.030;7.110;2023-02-24T07:18:14;3.15;;;2.03;;
34960;SDS011;30789;52.030;7.110;2023-02-24T07:20:40;3.95;;;2.20;;
34960;SDS011;30789;52.030;7.110;2023-02-24T07:23:10;11.00;;;3.40;;
34960;SDS011;30789;52.030;7.110;2023-02-24T07:25:37;6.07;;;1.98;;
34960;SDS011;30789;52.030;7.110;2023-02-24T07:28:05;4.45;;;1.80;;
34960;SDS011;30789;52.030;7.110;2023-02-24T07:30:32;9.40;;;2.42;;
34960;SDS011;30789;52.030;7.110;2023-02-24T07:33:01;10.52;;;2.25;;
34960;SDS011;30789;52.030;7.110;2023-02-24T07:35:28;8.20;;;1.98;;
34960;SDS011;30789;52.030;7.110;2023-02-24T07:37:54;8.25;;;2.35;;
34960;SDS011;30789;52.030;7.110;2023-02-24T07:40:26;6.05;;;2.38;;
34960;SDS011;30789;52.030;7.110;2023-02-24T07:42:53;3.70;;;1.75;;
34960;SDS011;30789;52.030;7.110;2023-02-24T07:45:21;5.93;;;2.08;;
34960;SDS011;30789;52.030;7.110;2023-02-24T07:47:47;2.80;;;1.30;;
34960;SDS011;30789;52.030;7.110;2023-02-24T07:50:13;8.52;;;2.22;;
34960;SDS011;30789;52.030;7.110;2023-02-24T07:52:42;9.68;;;2.50;;
34960;SDS011;30789;52.030;7.110;2023-02-24T07:55:09;8.07;;;2.35;;
34960;SDS011;30789;52.030;7.110;2023-02-24T07:57:36;4.30;;;1.35;;
34960;SDS011;30789;52.030;7.110;2023-02-24T08:00:05;9.98;;;1.83;;
34960;SDS011;30789;52.030;7.110;2023-02-24T08:02:43;6.65;;;1.90;;
34960;SDS011;30789;52.030;7.110;2023-02-24T08:05:09;10.35;;;2.10;;
34960;SDS011;30789;52.030;7.110;2023-02-24T08:07:35;10.00;;;2.10;;
34960;SDS011;30789;52.030;7.110;2023-02-24T08:10:01;5.30;;;1.67;;
34960;SDS011;30789;52.030;7.110;2023-02-24T08:12:48;12.48;;;2.55;;
34960;SDS011;30789;52.030;7.110;2023-02-24T08:15:20;8.48;;;2.05;;
34960;SDS011;30789;52.030;7.110;2023-02-24T08:17:49;5.75;;;2.22;;
34960;SDS011;30789;52.030;7.110;2023-02-24T08:20:17;9.88;;;3.70;;
34960;SDS011;30789;52.030;7.110;2023-02-24T08:22:54;5.20;;;1.85;;
34960;SDS011;30789;52.030;7.110;2023-02-24T08:25:21;7.03;;;2.03;;
34960;SDS011;30789;52.030;7.110;2023-02-24T08:27:48;5.25;;;1.40;;
34960;SDS011;30789;52.030;7.110;2023-02-24T08:30:21;7.43;;;1.98;;
34960;SDS011;30789;52.030;7.110;2023-02-24T08:32:49;6.55;;;1.80;;
34960;SDS011;30789;52.030;7.110;2023-02-24T08:35:21;7.13;;;2.17;;
34960;SDS011;30789;52.030;7.110;2023-02-24T08:37:50;6.88;;;2.15;;
34960;SDS011;30789;52.030;7.110;2023-02-24T08:40:17;5.15;;;1.73;;
34960;SDS011;30789;52.030;7.110;2023-02-24T08:43:03;4.65;;;1.95;;
34960;SDS011;30789;52.030;7.110;2023-02-24T08:45:42;9.65;;;2.20;;
34960;SDS011;30789;52.030;7.110;2023-02-24T08:48:09;4.90;;;2.55;;
34960;SDS011;30789;52.030;7.110;2023-02-24T08:50:42;12.68;;;3.55;;
34960;SDS011;30789;52.030;7.110;2023-02-24T08:53:09;6.43;;;2.60;;
34960;SDS011;30789;52.030;7.110;2023-02-24T08:55:39;5.10;;;2.35;;
34960;SDS011;30789;52.030;7.110;2023-02-24T08:58:06;8.77;;;2.58;;
34960;SDS011;30789;52.030;7.110;2023-02-24T09:00:35;11.18;;;2.40;;
34960;SDS011;30789;52.030;7.110;2023-02-24T09:03:14;5.55;;;1.70;;
34960;SDS011;30789;52.030;7.110;2023-02-24T09:05:54;11.13;;;2.85;;
34960;SDS011;30789;52.030;7.110;2023-02-24T09:08:20;13.13;;;2.90;;
34960;SDS011;30789;52.030;7.110;2023-02-24T09:10:48;15.90;;;2.65;;
34960;SDS011;30789;52.030;7.110;2023-02-24T09:13:14;6.30;;;2.05;;
34960;SDS011;30789;52.030;7.110;2023-02-24T09:15:40;5.88;;;2.40;;
34960;SDS011;30789;52.030;7.110;2023-02-24T09:18:08;5.88;;;2.63;;
34960;SDS011;30789;52.030;7.110;2023-02-24T09:20:39;3.70;;;1.63;;
34960;SDS011;30789;52.030;7.110;2023-02-24T09:23:37;6.32;;;2.20;;
34960;SDS011;30789;52.030;7.110;2023-02-24T09:26:09;5.20;;;2.10;;
34960;SDS011;30789;52.030;7.110;2023-02-24T09:28:38;6.75;;;1.83;;
34960;SDS011;30789;52.030;7.110;2023-02-24T09:31:13;11.18;;;3.10;;
34960;SDS011;30789;52.030;7.110;2023-02-24T09:33:41;5.43;;;2.40;;
34960;SDS011;30789;52.030;7.110;2023-02-24T09:36:16;8.70;;;3.28;;
34960;SDS011;30789;52.030;7.110;2023-02-24T09:38:45;8.40;;;2.55;;
34960;SDS011;30789;52.030;7.110;2023-02-24T09:41:34;8.80;;;2.75;;
34960;SDS011;30789;52.030;7.110;2023-02-24T09:44:19;7.32;;;2.53;;
34960;SDS011;30789;52.030;7.110;2023-02-24T09:46:53;10.27;;;3.65;;
34960;SDS011;30789;52.030;7.110;2023-02-24T09:49:22;6.10;;;1.90;;
34960;SDS011;30789;52.030;7.110;2023-02-24T09:51:50;7.07;;;2.47;;
34960;SDS011;30789;52.030;7.110;2023-02-24T09:54:24;8.88;;;2.00;;
34960;SDS011;30789;52.030;7.110;2023-02-24T09:56:56;5.65;;;2.00;;
34960;SDS011;30789;52.030;7.110;2023-02-24T09:59:33;8.80;;;2.67;;
34960;SDS011;30789;52.030;7.110;2023-02-24T10:02:02;6.03;;;2.38;;
34960;SDS011;30789;52.030;7.110;2023-02-24T10:04:47;5.28;;;2.53;;
34960;SDS011;30789;52.030;7.110;2023-02-24T10:07:21;7.32;;;2.58;;
34960;SDS011;30789;52.030;7.110;2023-02-24T10:09:51;7.15;;;2.15;;
34960;SDS011;30789;52.030;7.110;2023-02-24T10:12:22;5.25;;;1.52;;
34960;SDS011;30789;52.030;7.110;2023-02-24T10:14:52;5.03;;;2.92;;
34960;SDS011;30789;52.030;7.110;2023-02-24T10:17:46;4.50;;;2.22;;
34960;SDS011;30789;52.030;7.110;2023-02-24T10:20:14;11.00;;;3.75;;
34960;SDS011;30789;52.030;7.110;2023-02-24T10:22:57;9.75;;;3.28;;
34960;SDS011;30789;52.030;7.110;2023-02-24T10:25:26;5.45;;;3.03;;
34960;SDS011;30789;52.030;7.110;2023-02-24T10:28:01;6.65;;;2.75;;
34960;SDS011;30789;52.030;7.110;2023-02-24T10:30:37;5.45;;;2.35;;
34960;SDS011;30789;52.030;7.110;2023-02-24T10:33:18;11.18;;;4.22;;
34960;SDS011;30789;52.030;7.110;2023-02-24T10:35:49;7.40;;;3.63;;
34960;SDS011;30789;52.030;7.110;2023-02-24T10:38:19;11.32;;;5.50;;
34960;SDS011;30789;52.030;7.110;2023-02-24T10:40:47;7.40;;;4.00;;
34960;SDS011;30789;52.030;7.110;2023-02-24T10:43:21;6.25;;;2.85;;
34960;SDS011;30789;52.030;7.110;2023-02-24T10:45:54;10.50;;;3.97;;
34960;SDS011;30789;52.030;7.110;2023-02-24T10:48:30;4.80;;;3.38;;
34960;SDS011;30789;52.030;7.110;2023-02-24T10:51:06;8.15;;;2.58;;
34960;SDS011;30789;52.030;7.110;2023-02-24T10:53:35;3.50;;;2.75;;
34960;SDS011;30789;52.030;7.110;2023-02-24T10:56:03;6.30;;;3.85;;
34960;SDS011;30789;52.030;7.110;2023-02-24T10:58:48;3.15;;;2.47;;
34960;SDS011;30789;52.030;7.110;2023-02-24T11:01:44;7.90;;;2.80;;
34960;SDS011;30789;52.030;7.110;2023-02-24T11:04:18;5.15;;;3.25;;
34960;SDS011;30789;52.030;7.110;2023-02-24T11:07:01;6.25;;;2.53;;
34960;SDS011;30789;52.030;7.110;2023-02-24T11:09:35;6.30;;;2.50;;
34960;SDS011;30789;52.030;7.110;2023-02-24T11:12:11;6.72;;;3.38;;
34960;SDS011;30789;52.030;7.110;2023-02-24T11:14:57;10.73;;;4.22;;
34960;SDS011;30789;52.030;7.110;2023-02-24T11:17:44;5.25;;;3.53;;
34960;SDS011;30789;52.030;7.110;2023-02-24T11:20:14;9.43;;;4.15;;
34960;SDS011;30789;52.030;7.110;2023-02-24T11:22:44;7.60;;;3.00;;
34960;SDS011;30789;52.030;7.110;2023-02-24T11:25:18;5.72;;;2.80;;
34960;SDS011;30789;52.030;7.110;2023-02-24T11:27:45;3.03;;;2.13;;
34960;SDS011;30789;52.030;7.110;2023-02-24T11:30:14;6.78;;;2.70;;
34960;SDS011;30789;52.030;7.110;2023-02-24T11:32:51;6.72;;;2.50;;
34960;SDS011;30789;52.030;7.110;2023-02-24T11:35:20;10.57;;;2.92;;
34960;SDS011;30789;52.030;7.110;2023-02-24T11:37:51;3.50;;;2.42;;
34960;SDS011;30789;52.030;7.110;2023-02-24T11:40:24;6.45;;;2.35;;
34960;SDS011;30789;52.030;7.110;2023-02-24T11:42:52;6.30;;;2.15;;
34960;SDS011;30789;52.030;7.110;2023-02-24T11:45:24;11.68;;;3.33;;
34960;SDS011;30789;52.030;7.110;2023-02-24T11:47:53;5.40;;;2.45;;
34960;SDS011;30789;52.030;7.110;2023-02-24T11:50:24;4.90;;;2.63;;
34960;SDS011;30789;52.030;7.110;2023-02-24T11:52:53;5.60;;;2.95;;
34960;SDS011;30789;52.030;7.110;2023-02-24T11:55:23;7.35;;;3.42;;
34960;SDS011;30789;52.030;7.110;2023-02-24T11:57:52;7.03;;;4.80;;
34960;SDS011;30789;52.030;7.110;2023-02-24T12:00:20;14.00;;;4.85;;
34960;SDS011;30789;52.030;7.110;2023-02-24T12:02:49;4.10;;;2.78;;
34960;SDS011;30789;52.030;7.110;2023-02-24T12:05:18;11.70;;;5.43;;
34960;SDS011;30789;52.030;7.110;2023-02-24T12:07:45;11.77;;;4.25;;
34960;SDS011;30789;52.030;7.110;2023-02-24T12:10:15;12.55;;;4.38;;
34960;SDS011;30789;52.030;7.110;2023-02-24T12:12:44;5.03;;;3.72;;
34960;SDS011;30789;52.030;7.110;2023-02-24T12:15:16;6.38;;;3.78;;
34960;SDS011;30789;52.030;7.110;2023-02-24T12:17:47;7.50;;;2.97;;
34960;SDS011;30789;52.030;7.110;2023-02-24T12:20:14;7.50;;;2.75;;
34960;SDS011;30789;52.030;7.110;2023-02-24T12:22:45;5.55;;;3.42;;
34960;SDS011;30789;52.030;7.110;2023-02-24T12:25:15;7.37;;;3.30;;
34960;SDS011;30789;52.030;7.110;2023-02-24T12:27:50;6.57;;;3.05;;
34960;SDS011;30789;52.030;7.110;2023-02-24T12:30:35;9.75;;;3.13;;
34960;SDS011;30789;52.030;7.110;2023-02-24T12:33:15;12.13;;;3.67;;
34960;SDS011;30789;52.030;7.110;2023-02-24T12:35:46;14.70;;;3.80;;
34960;SDS011;30789;52.030;7.110;2023-02-24T12:38:24;5.20;;;2.85;;
34960;SDS011;30789;52.030;7.110;2023-02-24T12:40:53;6.57;;;3.38;;
34960;SDS011;30789;52.030;7.110;2023-02-24T12:43:22;7.15;;;4.15;;
34960;SDS011;30789;52.030;7.110;2023-02-24T12:45:52;9.07;;;3.70;;
34960;SDS011;30789;52.030;7.110;2023-02-24T12:48:31;12.15;;;4.07;;
34960;SDS011;30789;52.030;7.110;2023-02-24T12:51:02;10.27;;;3.80;;
34960;SDS011;30789;52.030;7.110;2023-02-24T12:53:32;7.85;;;3.03;;
34960;SDS011;30789;52.030;7.110;2023-02-24T12:56:02;11.13;;;3.95;;
34960;SDS011;30789;52.030;7.110;2023-02-24T12:58:32;8.67;;;3.47;;
34960;SDS011;30789;52.030;7.110;2023-02-24T13:01:03;9.32;;;5.15;;
34960;SDS011;30789;52.030;7.110;2023-02-24T13:03:34;5.47;;;3.22;;
34960;SDS011;30789;52.030;7.110;2023-02-24T13:06:05;12.93;;;4.50;;
34960;SDS011;30789;52.030;7.110;2023-02-24T13:08:37;5.70;;;3.80;;
34960;SDS011;30789;52.030;7.110;2023-02-24T13:11:07;10.02;;;3.35;;
34960;SDS011;30789;52.030;7.110;2023-02-24T13:13:39;17.93;;;9.50;;
34960;SDS011;30789;52.030;7.110;2023-02-24T13:16:09;10.77;;;5.95;;
34960;SDS011;30789;52.030;7.110;2023-02-24T13:18:36;21.92;;;10.10;;
34960;SDS011;30789;52.030;7.110;2023-02-24T13:21:04;20.55;;;10.70;;
34960;SDS011;30789;52.030;7.110;2023-02-24T13:23:31;11.27;;;6.03;;
34960;SDS011;30789;52.030;7.110;2023-02-24T13:25:58;13.40;;;5.20;;
34960;SDS011;30789;52.030;7.110;2023-02-24T13:28:25;28.42;;;13.70;;
34960;SDS011;30789;52.030;7.110;2023-02-24T13:30:56;13.20;;;5.88;;
34960;SDS011;30789;52.030;7.110;2023-02-24T13:33:27;15.95;;;8.13;;
34960;SDS011;30789;52.030;7.110;2023-02-24T13:36:05;29.83;;;11.77;;
34960;SDS011;30789;52.030;7.110;2023-02-24T13:38:34;13.88;;;6.53;;
34960;SDS011;30789;52.030;7.110;2023-02-24T13:41:08;31.88;;;12.68;;
34960;SDS011;30789;52.030;7.110;2023-02-24T13:43:34;37.40;;;14.13;;
34960;SDS011;30789;52.030;7.110;2023-02-24T13:46:01;12.45;;;7.45;;
34960;SDS011;30789;52.030;7.110;2023-02-24T13:48:48;26.33;;;11.35;;
34960;SDS011;30789;52.030;7.110;2023-02-24T13:54:14;17.58;;;8.52;;
34960;SDS011;30789;52.030;7.110;2023-02-24T13:56:42;15.18;;;7.78;;
34960;SDS011;30789;52.030;7.110;2023-02-24T13:59:18;16.08;;;9.10;;
34960;SDS011;30789;52.030;7.110;2023-02-24T14:01:49;21.15;;;8.88;;
34960;SDS011;30789;52.030;7.110;2023-02-24T14:04:19;17.13;;;10.85;;
34960;SDS011;30789;52.030;7.110;2023-02-24T14:06:47;20.45;;;13.35;;
34960;SDS011;30789;52.030;7.110;2023-02-24T14:09:15;18.67;;;7.78;;
34960;SDS011;30789;52.030;7.110;2023-02-24T14:11:42;16.73;;;6.72;;
34960;SDS011;30789;52.030;7.110;2023-02-24T14:14:11;12.63;;;6.38;;
34960;SDS011;30789;52.030;7.110;2023-02-24T14:16:38;11.02;;;5.47;;
34960;SDS011;30789;52.030;7.110;2023-02-24T14:19:05;9.98;;;5.63;;
34960;SDS011;30789;52.030;7.110;2023-02-24T14:21:37;11.30;;;5.45;;
34960;SDS011;30789;52.030;7.110;2023-02-24T14:24:11;11.75;;;6.47;;
34960;SDS011;30789;52.030;7.110;2023-02-24T14:26:40;12.38;;;6.50;;
34960;SDS011;30789;52.030;7.110;2023-02-24T14:29:07;15.63;;;6.97;;
34960;SDS011;30789;52.030;7.110;2023-02-24T14:31:33;11.32;;;7.00;;
34960;SDS011;30789;52.030;7.110;2023-02-24T14:34:03;10.50;;;5.97;;
34960;SDS011;30789;52.030;7.110;2023-02-24T14:36:30;12.95;;;5.10;;
34960;SDS011;30789;52.030;7.110;2023-02-24T14:39:00;9.43;;;5.30;;
34960;SDS011;30789;52.030;7.110;2023-02-24T14:41:27;10.20;;;5.30;;
34960;SDS011;30789;52.030;7.110;2023-02-24T14:43:53;11.45;;;4.70;;
34960;SDS011;30789;52.030;7.110;2023-02-24T14:46:20;14.95;;;4.63;;
34960;SDS011;30789;52.030;7.110;2023-02-24T14:48:51;12.50;;;3.45;;
34960;SDS011;30789;52.030;7.110;2023-02-24T14:51:18;8.23;;;2.70;;
34960;SDS011;30789;52.030;7.110;2023-02-24T14:53:47;8.45;;;3.13;;
34960;SDS011;30789;52.030;7.110;2023-02-24T14:56:16;8.10;;;2.70;;
34960;SDS011;30789;52.030;7.110;2023-02-24T14:58:43;9.30;;;3.92;;
34960;SDS011;30789;52.030;7.110;2023-02-24T15:01:13;17.40;;;7.72;;
34960;SDS011;30789;52.030;7.110;2023-02-24T15:06:11;12.20;;;4.05;;
34960;SDS011;30789;52.030;7.110;2023-02-24T15:08:39;13.02;;;3.80;;
34960;SDS011;30789;52.030;7.110;2023-02-24T15:11:08;11.90;;;3.47;;